sensor_id;sensor_type;location;lat;lon;timestamp;pressure;altitude;pressure_sealevel;temperature;humidity
10518;BME280;5307;42.548;22.968;2023-04-04T00:01:52;92394.81;;;6.72;100.00
10518;BME280;5307;42.548;22.968;2023-04-04T00:04:18;92416.78;;;6.83;100.00
10518;BME280;5307;42.548;22.968;2023-04-04T00:06:45;92399.91;;;6.79;100.00
10518;BME280;5307;42.548;22.968;2023-04-04T00:09:12;92404.38;;;6.91;100.00
10518;BME280;5307;42.548;22.968;2023-04-04T00:11:41;92405.06;;;7.01;100.00
10518;BME280;5307;42.548;22.968;2023-04-04T00:14:08;92407.13;;;6.82;100.00
10518;BME280;5307;42.548;22.968;2023-04-04T00:16:37;92410.47;;;6.77;100.00
10518;BME280;5307;42.548;22.968;2023-04-04T00:19:04;92410.00;;;6.78;100.00
10518;BME280;5307;42.548;22.968;2023-04-04T00:21:31;92410.25;;;6.90;100.00
10518;BME280;5307;42.548;22.968;2023-04-04T00:23:59;92405.34;;;6.79;100.00
10518;BME280;5307;42.548;22.968;2023-04-04T00:26:25;92413.44;;;6.88;100.00
10518;BME280;5307;42.548;22.968;2023-04-04T00:28:53;92420.66;;;6.91;100.00
10518;BME280;5307;42.548;22.968;2023-04-04T00:31:20;92422.78;;;6.87;100.00
10518;BME280;5307;42.548;22.968;2023-04-04T00:33:48;92421.72;;;6.84;100.00
10518;BME280;5307;42.548;22.968;2023-04-04T00:36:14;92437.25;;;6.93;100.00
10518;BME280;5307;42.548;22.968;2023-04-04T00:38:41;92443.50;;;7.08;100.00
10518;BME280;5307;42.548;22.968;2023-04-04T00:41:08;92448.78;;;7.03;100.00
10518;BME280;5307;42.548;22.968;2023-04-04T00:43:36;92452.91;;;6.89;100.00
10518;BME280;5307;42.548;22.968;2023-04-04T00:46:06;92461.50;;;6.88;100.00
10518;BME280;5307;42.548;22.968;2023-04-04T00:48:33;92453.72;;;6.80;100.00
10518;BME280;5307;42.548;22.968;2023-04-04T00:51:00;92465.69;;;6.55;100.00
10518;BME280;5307;42.548;22.968;2023-04-04T00:53:27;92453.50;;;6.51;100.00
10518;BME280;5307;42.548;22.968;2023-04-04T00:55:54;92461.34;;;6.49;100.00
10518;BME280;5307;42.548;22.968;2023-04-04T00:58:23;92455.41;;;6.60;100.00
10518;BME280;5307;42.548;22.968;2023-04-04T01:00:51;92446.94;;;6.76;100.00
10518;BME280;5307;42.548;22.968;2023-04-04T01:03:19;92446.94;;;6.76;100.00
10518;BME280;5307;42.548;22.968;2023-04-04T01:05:46;92442.41;;;6.73;100.00
10518;BME280;5307;42.548;22.968;2023-04-04T01:08:16;92440.59;;;6.79;100.00
10518;BME280;5307;42.548;22.968;2023-04-04T01:10:44;92431.56;;;6.73;100.00
10518;BME280;5307;42.548;22.968;2023-04-04T01:13:11;92433.41;;;6.67;100.00
10518;BME280;5307;42.548;22.968;2023-04-04T01:15:38;92416.56;;;6.63;100.00
10518;BME280;5307;42.548;22.968;2023-04-04T01:18:06;92425.00;;;6.46;100.00
10518;BME280;5307;42.548;22.968;2023-04-04T01:20:39;92418.25;;;6.42;100.00
10518;BME280;5307;42.548;22.968;2023-04-04T01:23:08;92411.59;;;6.52;100.00
10518;BME280;5307;42.548;22.968;2023-04-04T01:25:38;92391.47;;;6.35;100.00
10518;BME280;5307;42.548;22.968;2023-04-04T01:28:05;92376.34;;;6.52;100.00
10518;BME280;5307;42.548;22.968;2023-04-04T01:30:34;92377.75;;;6.38;100.00
10518;BME280;5307;42.548;22.968;2023-04-04T01:33:06;92367.06;;;6.35;100.00
10518;BME280;5307;42.548;22.968;2023-04-04T01:35:39;92372.34;;;6.29;100.00
10518;BME280;5307;42.548;22.968;2023-04-04T01:38:13;92373.06;;;6.39;100.00
10518;BME280;5307;42.548;22.968;2023-04-04T01:40:48;92364.59;;;6.55;100.00
10518;BME280;5307;42.548;22.968;2023-04-04T01:43:15;92373.81;;;6.48;100.00
10518;BME280;5307;42.548;22.968;2023-04-04T01:45:43;92379.38;;;6.45;100.00
10518;BME280;5307;42.548;22.968;2023-04-04T01:48:10;92379.94;;;6.58;100.00
10518;BME280;5307;42.548;22.968;2023-04-04T01:50:37;92378.31;;;6.51;100.00
10518;BME280;5307;42.548;22.968;2023-04-04T01:53:04;92390.66;;;6.52;100.00
10518;BME280;5307;42.548;22.968;2023-04-04T01:55:30;92389.44;;;6.63;100.00
10518;BME280;5307;42.548;22.968;2023-04-04T01:57:59;92392.13;;;6.63;100.00
10518;BME280;5307;42.548;22.968;2023-04-04T02:00:25;92394.53;;;6.61;100.00
10518;BME280;5307;42.548;22.968;2023-04-04T02:02:52;92402.25;;;6.53;100.00
10518;BME280;5307;42.548;22.968;2023-04-04T02:05:19;92401.91;;;6.69;100.00
10518;BME280;5307;42.548;22.968;2023-04-04T02:07:47;92390.50;;;6.56;100.00
10518;BME280;5307;42.548;22.968;2023-04-04T02:10:15;92393.97;;;6.47;100.00
10518;BME280;5307;42.548;22.968;2023-04-04T02:12:41;92396.34;;;6.64;100.00
10518;BME280;5307;42.548;22.968;2023-04-04T02:15:10;92396.97;;;6.59;100.00
10518;BME280;5307;42.548;22.968;2023-04-04T02:17:37;92390.38;;;6.50;100.00
10518;BME280;5307;42.548;22.968;2023-04-04T02:20:05;92389.16;;;6.51;100.00
10518;BME280;5307;42.548;22.968;2023-04-04T02:22:32;92390.94;;;6.64;100.00
10518;BME280;5307;42.548;22.968;2023-04-04T02:24:58;92393.34;;;6.62;100.00
10518;BME280;5307;42.548;22.968;2023-04-04T02:27:27;92396.34;;;6.64;100.00
10518;BME280;5307;42.548;22.968;2023-04-04T02:29:54;92398.16;;;6.58;100.00
10518;BME280;5307;42.548;22.968;2023-04-04T02:32:23;92398.34;;;6.45;100.00
10518;BME280;5307;42.548;22.968;2023-04-04T02:34:49;92397.47;;;6.48;100.00
10518;BME280;5307;42.548;22.968;2023-04-04T02:37:16;92402.38;;;6.59;100.00
10518;BME280;5307;42.548;22.968;2023-04-04T02:39:44;92402.09;;;6.57;100.00
10518;BME280;5307;42.548;22.968;2023-04-04T02:42:11;92408.25;;;6.57;100.00
10518;BME280;5307;42.548;22.968;2023-04-04T02:44:38;92408.91;;;6.43;100.00
10518;BME280;5307;42.548;22.968;2023-04-04T02:47:05;92408.16;;;6.42;100.00
10518;BME280;5307;42.548;22.968;2023-04-04T02:49:33;92409.78;;;6.58;100.00
10518;BME280;5307;42.548;22.968;2023-04-04T02:52:00;92412.91;;;6.66;100.00
10518;BME280;5307;42.548;22.968;2023-04-04T02:54:27;92407.19;;;6.64;100.00
10518;BME280;5307;42.548;22.968;2023-04-04T02:56:53;92405.69;;;6.63;100.00
10518;BME280;5307;42.548;22.968;2023-04-04T02:59:20;92408.72;;;6.65;100.00
10518;BME280;5307;42.548;22.968;2023-04-04T03:01:48;92403.56;;;6.67;100.00
10518;BME280;5307;42.548;22.968;2023-04-04T03:04:15;92402.38;;;6.68;100.00
10518;BME280;5307;42.548;22.968;2023-04-04T03:06:45;92391.72;;;6.46;100.00
10518;BME280;5307;42.548;22.968;2023-04-04T03:09:12;92388.25;;;6.54;100.00
10518;BME280;5307;42.548;22.968;2023-04-04T03:11:39;92387.75;;;6.65;100.00
10518;BME280;5307;42.548;22.968;2023-04-04T03:14:06;92397.06;;;6.73;100.00
10518;BME280;5307;42.548;22.968;2023-04-04T03:16:33;92390.88;;;6.73;100.00
10518;BME280;5307;42.548;22.968;2023-04-04T03:19:00;92390.94;;;6.64;100.00
10518;BME280;5307;42.548;22.968;2023-04-04T03:21:27;92397.84;;;6.65;100.00
10518;BME280;5307;42.548;22.968;2023-04-04T03:23:55;92401.44;;;6.71;100.00
10518;BME280;5307;42.548;22.968;2023-04-04T03:26:22;92406.13;;;6.70;100.00
10518;BME280;5307;42.548;22.968;2023-04-04T03:28:49;92404.78;;;6.66;100.00
10518;BME280;5307;42.548;22.968;2023-04-04T03:31:16;92408.09;;;6.61;100.00
10518;BME280;5307;42.548;22.968;2023-04-04T03:33:42;92390.84;;;6.49;100.00
10518;BME280;5307;42.548;22.968;2023-04-04T03:36:09;92394.75;;;6.48;100.00
10518;BME280;5307;42.548;22.968;2023-04-04T03:38:37;92391.44;;;6.44;100.00
10518;BME280;5307;42.548;22.968;2023-04-04T03:41:06;92391.25;;;6.47;100.00
10518;BME280;5307;42.548;22.968;2023-04-04T03:43:33;92394.41;;;6.55;100.00
10518;BME280;5307;42.548;22.968;2023-04-04T03:46:00;92399.38;;;6.57;100.00
10518;BME280;5307;42.548;22.968;2023-04-04T03:48:27;92409.00;;;6.58;100.00
10518;BME280;5307;42.548;22.968;2023-04-04T03:50:55;92410.38;;;6.62;100.00
10518;BME280;5307;42.548;22.968;2023-04-04T03:53:22;92412.78;;;6.60;100.00
10518;BME280;5307;42.548;22.968;2023-04-04T03:55:49;92415.19;;;6.58;100.00
10518;BME280;5307;42.548;22.968;2023-04-04T03:58:17;92421.06;;;6.66;100.00
10518;BME280;5307;42.548;22.968;2023-04-04T04:00:44;92419.56;;;6.65;100.00
10518;BME280;5307;42.548;22.968;2023-04-04T04:03:10;92418.81;;;6.64;100.00
10518;BME280;5307;42.548;22.968;2023-04-04T04:05:37;92425.56;;;6.69;100.00
10518;BME280;5307;42.548;22.968;2023-04-04T04:08:04;92423.44;;;6.73;100.00
10518;BME280;5307;42.548;22.968;2023-04-04T04:10:31;92423.19;;;6.52;100.00
10518;BME280;5307;42.548;22.968;2023-04-04T04:12:58;92416.91;;;6.37;100.00
10518;BME280;5307;42.548;22.968;2023-04-04T04:15:27;92426.50;;;6.47;100.00
10518;BME280;5307;42.548;22.968;2023-04-04T04:17:54;92427.69;;;6.65;100.00
10518;BME280;5307;42.548;22.968;2023-04-04T04:20:21;92415.47;;;6.60;100.00
10518;BME280;5307;42.548;22.968;2023-04-04T04:22:48;92420.31;;;6.65;100.00
10518;BME280;5307;42.548;22.968;2023-04-04T04:25:15;92424.47;;;6.75;100.00
10518;BME280;5307;42.548;22.968;2023-04-04T04:27:42;92422.66;;;6.81;100.00
10518;BME280;5307;42.548;22.968;2023-04-04T04:30:09;92430.03;;;6.81;100.00
10518;BME280;5307;42.548;22.968;2023-04-04T04:32:38;92428.25;;;6.78;100.00
10518;BME280;5307;42.548;22.968;2023-04-04T04:35:06;92426.78;;;6.68;100.00
10518;BME280;5307;42.548;22.968;2023-04-04T04:37:34;92436.22;;;6.81;100.00
10518;BME280;5307;42.548;22.968;2023-04-04T04:40:01;92440.28;;;6.86;100.00
10518;BME280;5307;42.548;22.968;2023-04-04T04:42:27;92454.19;;;6.79;100.00
10518;BME280;5307;42.548;22.968;2023-04-04T04:44:54;92455.22;;;6.81;100.00
10518;BME280;5307;42.548;22.968;2023-04-04T04:47:21;92454.13;;;6.88;100.00
10518;BME280;5307;42.548;22.968;2023-04-04T04:49:50;92450.94;;;6.90;100.00
10518;BME280;5307;42.548;22.968;2023-04-04T04:52:17;92455.03;;;6.85;100.00
10518;BME280;5307;42.548;22.968;2023-04-04T04:54:44;92450.53;;;6.82;100.00
10518;BME280;5307;42.548;22.968;2023-04-04T04:57:11;92460.75;;;6.87;100.00
10518;BME280;5307;42.548;22.968;2023-04-04T04:59:37;92454.19;;;6.79;100.00
10518;BME280;5307;42.548;22.968;2023-04-04T05:02:06;92462.91;;;6.83;100.00
10518;BME280;5307;42.548;22.968;2023-04-04T05:04:32;92466.81;;;6.82;100.00
10518;BME280;5307;42.548;22.968;2023-04-04T05:07:01;92469.81;;;6.93;100.00
10518;BME280;5307;42.548;22.968;2023-04-04T05:09:28;92474.94;;;6.91;100.00
10518;BME280;5307;42.548;22.968;2023-04-04T05:11:54;92480.50;;;6.97;100.00
10518;BME280;5307;42.548;22.968;2023-04-04T05:14:21;92477.59;;;7.00;100.00
10518;BME280;5307;42.548;22.968;2023-04-04T05:16:49;92481.22;;;7.06;100.00
10518;BME280;5307;42.548;22.968;2023-04-04T05:19:15;92481.78;;;7.10;100.00
10518;BME280;5307;42.548;22.968;2023-04-04T05:21:42;92486.19;;;7.08;100.00
10518;BME280;5307;42.548;22.968;2023-04-04T05:24:10;92484.81;;;7.12;100.00
10518;BME280;5307;42.548;22.968;2023-04-04T05:26:37;92495.47;;;7.25;100.00
10518;BME280;5307;42.548;22.968;2023-04-04T05:29:04;92485.19;;;7.29;100.00
10518;BME280;5307;42.548;22.968;2023-04-04T05:31:31;92489.00;;;7.23;100.00
10518;BME280;5307;42.548;22.968;2023-04-04T05:33:58;92490.00;;;7.34;100.00
10518;BME280;5307;42.548;22.968;2023-04-04T05:36:32;92489.66;;;7.41;100.00
10518;BME280;5307;42.548;22.968;2023-04-04T05:38:59;92488.13;;;7.50;100.00
10518;BME280;5307;42.548;22.968;2023-04-04T05:41:28;92491.47;;;7.68;100.00
10518;BME280;5307;42.548;22.968;2023-04-04T05:43:54;92491.59;;;7.74;100.00
10518;BME280;5307;42.548;22.968;2023-04-04T05:46:21;92488.13;;;7.73;100.00
10518;BME280;5307;42.548;22.968;2023-04-04T05:48:49;92491.88;;;7.52;100.00
10518;BME280;5307;42.548;22.968;2023-04-04T05:51:16;92497.84;;;7.65;100.00
10518;BME280;5307;42.548;22.968;2023-04-04T05:53:43;92500.84;;;7.67;100.00
10518;BME280;5307;42.548;22.968;2023-04-04T05:56:12;92496.91;;;7.68;100.00
10518;BME280;5307;42.548;22.968;2023-04-04T05:58:40;92503.16;;;7.84;100.00
10518;BME280;5307;42.548;22.968;2023-04-04T06:01:07;92502.97;;;7.87;100.00
10518;BME280;5307;42.548;22.968;2023-04-04T06:03:34;92506.56;;;7.93;100.00
10518;BME280;5307;42.548;22.968;2023-04-04T06:06:02;92500.03;;;8.00;100.00
10518;BME280;5307;42.548;22.968;2023-04-04T06:08:29;92511.25;;;7.93;100.00
10518;BME280;5307;42.548;22.968;2023-04-04T06:10:56;92511.31;;;8.08;100.00
10518;BME280;5307;42.548;22.968;2023-04-04T06:13:23;92522.66;;;8.06;100.00
10518;BME280;5307;42.548;22.968;2023-04-04T06:15:51;92521.66;;;7.70;100.00
10518;BME280;5307;42.548;22.968;2023-04-04T06:18:18;92516.56;;;7.63;100.00
10518;BME280;5307;42.548;22.968;2023-04-04T06:20:45;92512.88;;;7.76;100.00
10518;BME280;5307;42.548;22.968;2023-04-04T06:23:12;92512.94;;;7.66;100.00
10518;BME280;5307;42.548;22.968;2023-04-04T06:25:39;92521.59;;;7.80;100.00
10518;BME280;5307;42.548;22.968;2023-04-04T06:28:06;92531.44;;;7.44;100.00
10518;BME280;5307;42.548;22.968;2023-04-04T06:30:34;92534.97;;;7.26;100.00
10518;BME280;5307;42.548;22.968;2023-04-04T06:33:03;92534.59;;;7.09;100.00
10518;BME280;5307;42.548;22.968;2023-04-04T06:35:30;92532.19;;;7.02;100.00
10518;BME280;5307;42.548;22.968;2023-04-04T06:37:57;92528.59;;;6.96;100.00
10518;BME280;5307;42.548;22.968;2023-04-04T06:40:24;92542.25;;;7.20;100.00
10518;BME280;5307;42.548;22.968;2023-04-04T06:42:51;92536.16;;;7.34;100.00
10518;BME280;5307;42.548;22.968;2023-04-04T06:45:19;92549.53;;;7.05;100.00
10518;BME280;5307;42.548;22.968;2023-04-04T06:47:46;92552.75;;;6.76;100.00
10518;BME280;5307;42.548;22.968;2023-04-04T06:50:16;92562.41;;;6.40;100.00
10518;BME280;5307;42.548;22.968;2023-04-04T06:52:43;92561.03;;;6.72;100.00
10518;BME280;5307;42.548;22.968;2023-04-04T06:55:10;92563.91;;;6.41;100.00
10518;BME280;5307;42.548;22.968;2023-04-04T06:57:37;92555.94;;;6.38;100.00
10518;BME280;5307;42.548;22.968;2023-04-04T07:00:05;92560.00;;;6.24;100.00
10518;BME280;5307;42.548;22.968;2023-04-04T07:02:32;92572.03;;;6.32;100.00
10518;BME280;5307;42.548;22.968;2023-04-04T07:04:59;92567.66;;;6.44;100.00
10518;BME280;5307;42.548;22.968;2023-04-04T07:07:27;92573.56;;;6.42;100.00
10518;BME280;5307;42.548;22.968;2023-04-04T07:09:55;92578.38;;;6.57;100.00
10518;BME280;5307;42.548;22.968;2023-04-04T07:12:22;92580.78;;;6.64;100.00
10518;BME280;5307;42.548;22.968;2023-04-04T07:14:49;92584.25;;;6.55;100.00
10518;BME280;5307;42.548;22.968;2023-04-04T07:17:15;92584.25;;;6.64;100.00
10518;BME280;5307;42.548;22.968;2023-04-04T07:19:42;92576.84;;;6.46;100.00
10518;BME280;5307;42.548;22.968;2023-04-04T07:22:09;92583.31;;;6.95;100.00
10518;BME280;5307;42.548;22.968;2023-04-04T07:24:39;92574.13;;;6.92;100.00
10518;BME280;5307;42.548;22.968;2023-04-04T07:27:06;92591.28;;;6.98;100.00
10518;BME280;5307;42.548;22.968;2023-04-04T07:29:33;92592.13;;;7.32;100.00
10518;BME280;5307;42.548;22.968;2023-04-04T07:32:00;92595.16;;;7.34;100.00
10518;BME280;5307;42.548;22.968;2023-04-04T07:34:26;92594.81;;;7.41;100.00
10518;BME280;5307;42.548;22.968;2023-04-04T07:36:54;92601.28;;;6.83;100.00
10518;BME280;5307;42.548;22.968;2023-04-04T07:39:21;92603.53;;;6.94;100.00
10518;BME280;5307;42.548;22.968;2023-04-04T07:41:49;92610.66;;;7.42;100.00
10518;BME280;5307;42.548;22.968;2023-04-04T07:44:16;92621.16;;;6.89;100.00
10518;BME280;5307;42.548;22.968;2023-04-04T07:46:42;92623.28;;;6.85;99.52
10518;BME280;5307;42.548;22.968;2023-04-04T07:49:09;92610.63;;;6.82;99.83
10518;BME280;5307;42.548;22.968;2023-04-04T07:51:37;92625.53;;;6.41;98.41
10518;BME280;5307;42.548;22.968;2023-04-04T07:54:04;92623.69;;;6.29;99.59
10518;BME280;5307;42.548;22.968;2023-04-04T07:56:31;92630.81;;;6.53;99.54
10518;BME280;5307;42.548;22.968;2023-04-04T07:58:59;92625.06;;;6.88;99.02
10518;BME280;5307;42.548;22.968;2023-04-04T08:01:26;92633.50;;;6.35;99.70
10518;BME280;5307;42.548;22.968;2023-04-04T08:03:53;92627.16;;;6.47;100.00
10518;BME280;5307;42.548;22.968;2023-04-04T08:06:20;92629.63;;;6.64;100.00
10518;BME280;5307;42.548;22.968;2023-04-04T08:08:47;92620.25;;;6.46;99.32
10518;BME280;5307;42.548;22.968;2023-04-04T08:11:14;92634.41;;;6.41;99.25
10518;BME280;5307;42.548;22.968;2023-04-04T08:13:41;92635.97;;;6.02;97.90
10518;BME280;5307;42.548;22.968;2023-04-04T08:16:10;92628.03;;;6.08;98.90
10518;BME280;5307;42.548;22.968;2023-04-04T08:18:36;92641.72;;;6.13;98.86
10518;BME280;5307;42.548;22.968;2023-04-04T08:21:04;92645.47;;;5.98;98.70
10518;BME280;5307;42.548;22.968;2023-04-04T08:23:31;92649.41;;;6.15;99.32
10518;BME280;5307;42.548;22.968;2023-04-04T08:25:57;92652.25;;;6.02;98.80
10518;BME280;5307;42.548;22.968;2023-04-04T08:28:24;92658.66;;;6.36;99.45
10518;BME280;5307;42.548;22.968;2023-04-04T08:30:52;92654.25;;;6.20;99.48
10518;BME280;5307;42.548;22.968;2023-04-04T08:33:20;92648.91;;;6.66;99.61
10518;BME280;5307;42.548;22.968;2023-04-04T08:35:48;92654.19;;;6.02;96.43
10518;BME280;5307;42.548;22.968;2023-04-04T08:38:15;92655.66;;;6.52;97.54
10518;BME280;5307;42.548;22.968;2023-04-04T08:40:45;92664.50;;;6.25;96.01
10518;BME280;5307;42.548;22.968;2023-04-04T08:43:13;92661.19;;;5.81;95.62
10518;BME280;5307;42.548;22.968;2023-04-04T08:45:42;92669.81;;;6.47;96.85
10518;BME280;5307;42.548;22.968;2023-04-04T08:48:10;92666.97;;;6.69;95.99
10518;BME280;5307;42.548;22.968;2023-04-04T08:50:41;92667.28;;;6.62;94.90
10518;BME280;5307;42.548;22.968;2023-04-04T08:53:08;92684.38;;;6.31;94.92
10518;BME280;5307;42.548;22.968;2023-04-04T08:55:36;92685.59;;;6.21;95.35
10518;BME280;5307;42.548;22.968;2023-04-04T08:58:03;92675.03;;;6.23;94.97
10518;BME280;5307;42.548;22.968;2023-04-04T09:00:30;92680.66;;;6.38;94.69
10518;BME280;5307;42.548;22.968;2023-04-04T09:03:03;92680.19;;;5.90;94.24
10518;BME280;5307;42.548;22.968;2023-04-04T09:05:32;92688.03;;;6.37;94.86
10518;BME280;5307;42.548;22.968;2023-04-04T09:08:02;92700.31;;;6.11;93.55
10518;BME280;5307;42.548;22.968;2023-04-04T09:10:31;92691.38;;;5.70;92.23
10518;BME280;5307;42.548;22.968;2023-04-04T09:13:01;92683.38;;;5.66;92.21
10518;BME280;5307;42.548;22.968;2023-04-04T09:15:28;92693.69;;;6.12;91.79
10518;BME280;5307;42.548;22.968;2023-04-04T09:17:57;92691.63;;;6.25;92.74
10518;BME280;5307;42.548;22.968;2023-04-04T09:20:37;92695.22;;;6.22;93.68
10518;BME280;5307;42.548;22.968;2023-04-04T09:23:07;92694.59;;;5.87;92.27
10518;BME280;5307;42.548;22.968;2023-04-04T09:25:35;92705.06;;;5.98;92.13
10518;BME280;5307;42.548;22.968;2023-04-04T09:28:02;92709.91;;;6.03;91.90
10518;BME280;5307;42.548;22.968;2023-04-04T09:30:31;92714.50;;;5.62;90.01
10518;BME280;5307;42.548;22.968;2023-04-04T09:33:03;92714.16;;;5.82;90.04
10518;BME280;5307;42.548;22.968;2023-04-04T09:35:32;92723.13;;;5.91;88.59
10518;BME280;5307;42.548;22.968;2023-04-04T09:37:59;92710.94;;;5.96;88.60
10518;BME280;5307;42.548;22.968;2023-04-04T09:40:27;92711.91;;;5.80;88.48
10518;BME280;5307;42.548;22.968;2023-04-04T09:42:54;92713.66;;;5.96;87.98
10518;BME280;5307;42.548;22.968;2023-04-04T09:45:25;92715.91;;;5.98;86.79
10518;BME280;5307;42.548;22.968;2023-04-04T09:47:53;92720.72;;;6.34;87.25
10518;BME280;5307;42.548;22.968;2023-04-04T09:50:21;92722.91;;;6.17;86.39
10518;BME280;5307;42.548;22.968;2023-04-04T09:52:48;92723.59;;;6.39;85.79
10518;BME280;5307;42.548;22.968;2023-04-04T09:55:15;92725.91;;;6.19;85.48
10518;BME280;5307;42.548;22.968;2023-04-04T09:57:45;92725.00;;;6.13;85.73
10518;BME280;5307;42.548;22.968;2023-04-04T10:00:18;92726.75;;;6.38;85.97
10518;BME280;5307;42.548;22.968;2023-04-04T10:02:46;92719.56;;;6.13;84.09
10518;BME280;5307;42.548;22.968;2023-04-04T10:05:14;92727.94;;;6.37;84.16
10518;BME280;5307;42.548;22.968;2023-04-04T10:07:42;92723.84;;;6.32;84.87
10518;BME280;5307;42.548;22.968;2023-04-04T10:10:09;92733.94;;;6.22;84.17
10518;BME280;5307;42.548;22.968;2023-04-04T10:12:36;92731.00;;;6.48;84.08
10518;BME280;5307;42.548;22.968;2023-04-04T10:15:06;92730.78;;;6.33;83.29
10518;BME280;5307;42.548;22.968;2023-04-04T10:17:37;92729.59;;;6.34;82.84
10518;BME280;5307;42.548;22.968;2023-04-04T10:20:07;92729.16;;;6.45;82.64
10518;BME280;5307;42.548;22.968;2023-04-04T10:22:35;92731.38;;;6.28;82.45
10518;BME280;5307;42.548;22.968;2023-04-04T10:25:05;92733.81;;;6.35;82.36
10518;BME280;5307;42.548;22.968;2023-04-04T10:27:32;92729.63;;;6.43;82.18
10518;BME280;5307;42.548;22.968;2023-04-04T10:29:59;92747.09;;;6.42;81.24
10518;BME280;5307;42.548;22.968;2023-04-04T10:32:39;92742.66;;;6.27;80.30
10518;BME280;5307;42.548;22.968;2023-04-04T10:35:09;92743.25;;;6.71;80.99
10518;BME280;5307;42.548;22.968;2023-04-04T10:37:39;92751.69;;;6.64;80.47
10518;BME280;5307;42.548;22.968;2023-04-04T10:40:10;92747.13;;;6.51;80.91
10518;BME280;5307;42.548;22.968;2023-04-04T10:42:40;92746.31;;;6.91;80.74
10518;BME280;5307;42.548;22.968;2023-04-04T10:45:09;92750.16;;;6.72;80.07
10518;BME280;5307;42.548;22.968;2023-04-04T10:47:38;92746.31;;;7.09;80.24
10518;BME280;5307;42.548;22.968;2023-04-04T10:50:06;92758.94;;;6.76;78.79
10518;BME280;5307;42.548;22.968;2023-04-04T10:52:35;92741.16;;;6.84;78.28
10518;BME280;5307;42.548;22.968;2023-04-04T10:55:04;92755.41;;;6.48;77.25
10518;BME280;5307;42.548;22.968;2023-04-04T10:57:33;92765.25;;;6.73;78.16
10518;BME280;5307;42.548;22.968;2023-04-04T11:00:05;92756.41;;;7.09;79.48
10518;BME280;5307;42.548;22.968;2023-04-04T11:02:46;92758.53;;;7.05;77.04
10518;BME280;5307;42.548;22.968;2023-04-04T11:05:17;92768.59;;;6.77;76.38
10518;BME280;5307;42.548;22.968;2023-04-04T11:07:47;92776.91;;;7.10;77.39
10518;BME280;5307;42.548;22.968;2023-04-04T11:10:21;92773.72;;;6.84;76.70
10518;BME280;5307;42.548;22.968;2023-04-04T11:12:52;92771.94;;;6.90;76.07
10518;BME280;5307;42.548;22.968;2023-04-04T11:15:21;92783.38;;;6.94;75.18
10518;BME280;5307;42.548;22.968;2023-04-04T11:17:59;92777.28;;;6.63;75.72
10518;BME280;5307;42.548;22.968;2023-04-04T11:20:33;92786.38;;;6.78;75.81
10518;BME280;5307;42.548;22.968;2023-04-04T11:23:05;92795.59;;;6.40;75.95
10518;BME280;5307;42.548;22.968;2023-04-04T11:25:37;92795.94;;;6.51;77.39
10518;BME280;5307;42.548;22.968;2023-04-04T11:28:11;92785.25;;;6.57;77.07
10518;BME280;5307;42.548;22.968;2023-04-04T11:30:41;92794.38;;;6.41;76.50
10518;BME280;5307;42.548;22.968;2023-04-04T11:33:25;92799.31;;;6.74;76.19
10518;BME280;5307;42.548;22.968;2023-04-04T11:36:03;92794.78;;;6.62;76.85
10518;BME280;5307;42.548;22.968;2023-04-04T11:38:31;92794.88;;;6.58;75.91
10518;BME280;5307;42.548;22.968;2023-04-04T11:40:58;92790.75;;;6.35;76.19
10518;BME280;5307;42.548;22.968;2023-04-04T11:43:25;92798.00;;;6.38;77.24
10518;BME280;5307;42.548;22.968;2023-04-04T11:45:53;92806.44;;;6.40;78.10
10518;BME280;5307;42.548;22.968;2023-04-04T11:48:21;92775.94;;;6.27;76.22
10518;BME280;5307;42.548;22.968;2023-04-04T11:50:52;92805.47;;;6.65;76.66
10518;BME280;5307;42.548;22.968;2023-04-04T11:53:18;92793.94;;;6.92;76.90
10518;BME280;5307;42.548;22.968;2023-04-04T11:55:47;92799.81;;;6.91;76.82
10518;BME280;5307;42.548;22.968;2023-04-04T11:58:16;92797.84;;;6.42;78.30
10518;BME280;5307;42.548;22.968;2023-04-04T12:00:44;92798.09;;;6.25;78.12
10518;BME280;5307;42.548;22.968;2023-04-04T12:03:11;92809.94;;;6.19;78.85
10518;BME280;5307;42.548;22.968;2023-04-04T12:05:38;92809.75;;;6.35;78.22
10518;BME280;5307;42.548;22.968;2023-04-04T12:08:08;92810.59;;;6.32;79.33
10518;BME280;5307;42.548;22.968;2023-04-04T12:10:37;92813.91;;;6.27;79.50
10518;BME280;5307;42.548;22.968;2023-04-04T12:13:05;92804.88;;;5.99;78.76
10518;BME280;5307;42.548;22.968;2023-04-04T12:15:33;92815.72;;;5.99;79.13
10518;BME280;5307;42.548;22.968;2023-04-04T12:18:00;92809.25;;;5.97;78.96
10518;BME280;5307;42.548;22.968;2023-04-04T12:20:28;92810.44;;;5.95;79.69
10518;BME280;5307;42.548;22.968;2023-04-04T12:22:56;92810.06;;;6.06;78.78
10518;BME280;5307;42.548;22.968;2023-04-04T12:25:25;92810.38;;;6.17;78.19
10518;BME280;5307;42.548;22.968;2023-04-04T12:27:58;92808.63;;;6.23;78.79
10518;BME280;5307;42.548;22.968;2023-04-04T12:30:28;92806.13;;;6.38;78.87
10518;BME280;5307;42.548;22.968;2023-04-04T12:32:56;92817.84;;;5.82;77.67
10518;BME280;5307;42.548;22.968;2023-04-04T12:35:22;92828.66;;;5.39;78.54
10518;BME280;5307;42.548;22.968;2023-04-04T12:37:57;92820.63;;;5.70;78.95
10518;BME280;5307;42.548;22.968;2023-04-04T12:40:28;92832.44;;;5.63;79.37
10518;BME280;5307;42.548;22.968;2023-04-04T12:42:56;92831.09;;;5.24;79.32
10518;BME280;5307;42.548;22.968;2023-04-04T12:45:24;92842.25;;;5.48;79.04
10518;BME280;5307;42.548;22.968;2023-04-04T12:47:51;92833.78;;;5.36;79.71
10518;BME280;5307;42.548;22.968;2023-04-04T12:50:23;92838.50;;;5.67;79.97
10518;BME280;5307;42.548;22.968;2023-04-04T12:52:51;92830.84;;;5.65;80.16
10518;BME280;5307;42.548;22.968;2023-04-04T12:55:21;92838.66;;;5.29;79.41
10518;BME280;5307;42.548;22.968;2023-04-04T12:57:49;92846.38;;;5.52;79.47
10518;BME280;5307;42.548;22.968;2023-04-04T13:00:19;92856.50;;;5.39;79.70
10518;BME280;5307;42.548;22.968;2023-04-04T13:02:48;92850.75;;;5.37;79.51
10518;BME280;5307;42.548;22.968;2023-04-04T13:05:19;92851.59;;;5.47;80.85
10518;BME280;5307;42.548;22.968;2023-04-04T13:07:47;92856.91;;;5.50;80.93
10518;BME280;5307;42.548;22.968;2023-04-04T13:10:14;92859.34;;;5.57;79.82